Time;durP1;ratioP1;P1;durP2;ratioP2;P2;SDS_P1;SDS_P2;PMS_P1;PMS_P2;Temp;Humidity;BMP_temperature;BMP_pressure;BME280_temperature;BME280_humidity;BME280_pressure;Samples;Min_cycle;Max_cycle;Signal;HPM_P1;HPM_P2
2022/10/01 00:01:25;;;;;;;11.30;5.40;;;;;;;;;;10562083;28;19929;-76
2022/10/01 00:06:29;;;;;;;9.82;5.75;;;;;;;;;;10557449;28;20095;-78
2022/10/01 00:11:33;;;;;;;12.75;5.90;;;;;;;;;;10576949;28;20047;-76
2022/10/01 00:16:36;;;;;;;7.93;3.60;;;;;;;;;;10568967;28;20468;-76
2022/10/01 00:21:40;;;;;;;11.30;5.75;;;;;;;;;;10568578;28;20071;-76
2022/10/01 00:26:44;;;;;;;12.10;6.07;;;;;;;;;;10555695;28;20032;-76
2022/10/01 00:31:47;;;;;;;13.65;7.10;;;;;;;;;;10563815;27;20131;-75
2022/10/01 00:36:51;;;;;;;13.65;6.95;;;;;;;;;;10563177;27;20028;-76
2022/10/01 00:41:53;;;;;;;;;;;;;;;;;;10558051;27;20043;-76
2022/10/01 00:46:57;;;;;;;15.73;7.40;;;;;;;;;;10573721;27;19919;-76
2022/10/01 00:52:02;;;;;;;15.10;7.28;;;;;;;;;;10573590;27;20085;-78
2022/10/01 00:57:06;;;;;;;14.65;7.18;;;;;;;;;;10557509;27;20048;-77
2022/10/01 01:02:09;;;;;;;12.88;5.70;;;;;;;;;;10557310;27;20047;-77
2022/10/01 01:07:15;;;;;;;14.25;6.43;;;;;;;;;;10574098;27;20043;-76
2022/10/01 01:12:25;;;;;;;12.40;6.32;;;;;;;;;;10564867;27;20153;-77
2022/10/01 01:17:35;;;;;;;18.05;8.60;;;;;;;;;;10570943;27;20056;-76
2022/10/01 01:22:42;;;;;;;47.15;15.27;;;;;;;;;;10565095;27;20044;-76
2022/10/01 01:27:50;;;;;;;37.05;10.93;;;;;;;;;;10567629;27;20128;-77
2022/10/01 01:33:01;;;;;;;17.33;8.07;;;;;;;;;;10572013;27;20036;-76
2022/10/01 01:38:07;;;;;;;20.60;9.52;;;;;;;;;;10565193;27;20050;-74
2022/10/01 01:43:12;;;;;;;20.60;9.57;;;;;;;;;;10565082;27;20039;-75
2022/10/01 01:48:19;;;;;;;22.60;9.85;;;;;;;;;;10547356;27;20067;-76
2022/10/01 01:53:22;;;;;;;;;;;;;;;;;;10562732;27;20393;-75
2022/10/01 01:58:25;;;;;;;22.13;10.05;;;;;;;;;;10568585;27;19930;-77
2022/10/01 02:03:30;;;;;;;23.42;10.23;;;;;;;;;;10567755;27;20063;-77
2022/10/01 02:08:36;;;;;;;24.73;10.10;;;;;;;;;;10563518;27;20096;-78
2022/10/01 02:13:43;;;;;;;29.27;11.20;;;;;;;;;;10573096;27;20230;-76
2022/10/01 02:18:51;;;;;;;24.60;9.88;;;;;;;;;;10563220;27;20108;-75
2022/10/01 02:23:58;;;;;;;19.60;9.07;;;;;;;;;;10561396;27;20047;-76
2022/10/01 02:29:05;;;;;;;33.67;11.45;;;;;;;;;;10570821;27;20035;-76
2022/10/01 02:34:10;;;;;;;23.90;9.90;;;;;;;;;;10565016;27;20059;-76
2022/10/01 02:39:15;;;;;;;31.52;10.77;;;;;;;;;;10559578;27;20035;-76
2022/10/01 02:44:21;;;;;;;17.45;8.30;;;;;;;;;;10563093;27;20035;-75
2022/10/01 02:49:29;;;;;;;20.15;8.30;;;;;;;;;;10565565;27;20049;-74
2022/10/01 02:54:35;;;;;;;20.08;9.23;;;;;;;;;;10563621;27;20035;-75
2022/10/01 02:59:38;;;;;;;21.33;8.82;;;;;;;;;;10576986;27;20473;-75
2022/10/01 03:04:42;;;;;;;20.38;8.40;;;;;;;;;;10564600;27;20548;-76
2022/10/01 03:09:44;;;;;;;;;;;;;;;;;;10577693;27;20050;-76
2022/10/01 03:14:47;;;;;;;9.00;4.30;;;;;;;;;;10582164;27;20330;-75
2022/10/01 03:19:54;;;;;;;16.95;6.82;;;;;;;;;;10569651;27;20054;-75
2022/10/01 03:24:56;;;;;;;;;;;;;;;;;;10564552;27;20040;-76
2022/10/01 03:29:59;;;;;;;15.57;7.03;;;;;;;;;;10568628;28;20028;-76
2022/10/01 03:35:03;;;;;;;11.93;4.32;;;;;;;;;;10557401;28;20034;-75
2022/10/01 03:40:06;;;;;;;17.23;7.45;;;;;;;;;;10553032;28;20036;-76
2022/10/01 03:45:11;;;;;;;15.30;6.45;;;;;;;;;;10561358;28;20131;-75
2022/10/01 03:50:16;;;;;;;6.07;2.92;;;;;;;;;;10564179;28;20054;-77
2022/10/01 03:55:19;;;;;;;7.40;3.50;;;;;;;;;;10552327;28;20043;-75
2022/10/01 04:00:21;;;;;;;13.90;6.50;;;;;;;;;;10558534;28;20067;-75
2022/10/01 04:05:30;;;;;;;18.05;7.30;;;;;;;;;;10550091;28;20556;-75
2022/10/01 04:10:36;;;;;;;16.08;6.82;;;;;;;;;;10566153;27;20504;-75
2022/10/01 04:15:40;;;;;;;18.55;7.28;;;;;;;;;;10565141;27;20044;-76
2022/10/01 04:20:44;;;;;;;13.95;6.43;;;;;;;;;;10573856;27;20047;-77
2022/10/01 04:25:46;;;;;;;14.02;5.57;;;;;;;;;;10572259;28;20127;-76
2022/10/01 04:31:23;;;;;;;12.63;5.68;;;;;;;;;;10568605;27;20574;-76
2022/10/01 04:36:13;;;;;;;12.48;5.13;;;;;;;;;;10563836;27;20075;-76
2022/10/01 04:41:16;;;;;;;9.73;3.70;;;;;;;;;;10570127;27;20052;-76
2022/10/01 04:46:19;;;;;;;12.73;5.93;;;;;;;;;;10567210;27;20040;-76
2022/10/01 04:51:23;;;;;;;10.52;5.05;;;;;;;;;;10564373;27;20036;-75
2022/10/01 04:56:26;;;;;;;10.00;4.53;;;;;;;;;;10566302;27;20560;-76
2022/10/01 05:01:29;;;;;;;9.88;4.68;;;;;;;;;;10571105;27;20059;-77
2022/10/01 05:06:34;;;;;;;11.30;4.82;;;;;;;;;;10577988;27;20043;-75
2022/10/01 05:11:37;;;;;;;13.57;5.95;;;;;;;;;;10569590;27;20041;-75
2022/10/01 05:16:41;;;;;;;12.48;4.22;;;;;;;;;;10566156;27;20054;-76
2022/10/01 05:21:45;;;;;;;11.48;4.95;;;;;;;;;;10570228;27;20453;-76
2022/10/01 05:26:48;;;;;;;;;;;;;;;;;;10565554;27;20058;-75
2022/10/01 05:31:52;;;;;;;10.80;4.93;;;;;;;;;;10558182;28;20361;-75
2022/10/01 05:36:56;;;;;;;6.82;3.08;;;;;;;;;;10580711;27;20059;-75
2022/10/01 05:42:01;;;;;;;15.65;6.57;;;;;;;;;;10564644;27;20136;-76
2022/10/01 05:47:08;;;;;;;6.57;3.22;;;;;;;;;;10552650;27;20484;-76
2022/10/01 05:52:15;;;;;;;12.43;5.82;;;;;;;;;;10570098;27;20032;-74
2022/10/01 05:57:18;;;;;;;9.20;5.35;;;;;;;;;;10566859;27;20404;-75
2022/10/01 06:02:21;;;;;;;9.68;4.70;;;;;;;;;;10547835;27;20388;-75
2022/10/01 06:07:25;;;;;;;5.63;2.90;;;;;;;;;;10551746;27;20063;-76
2022/10/01 06:12:27;;;;;;;;;;;;;;;;;;10575788;27;20230;-75
2022/10/01 06:17:30;;;;;;;10.50;5.18;;;;;;;;;;10568458;27;19919;-77
2022/10/01 06:22:34;;;;;;;9.85;4.30;;;;;;;;;;10565881;27;20489;-76
2022/10/01 06:27:37;;;;;;;;;;;;;;;;;;10567125;27;20052;-75
2022/10/01 06:32:39;;;;;;;9.05;4.53;;;;;;;;;;10569713;27;20308;-76
2022/10/01 06:37:43;;;;;;;6.90;4.10;;;;;;;;;;10565226;27;20111;-77
2022/10/01 06:42:47;;;;;;;3.80;2.20;;;;;;;;;;10563096;27;20045;-75
2022/10/01 06:47:53;;;;;;;8.50;4.20;;;;;;;;;;10558847;27;20498;-76
2022/10/01 06:52:57;;;;;;;7.30;4.05;;;;;;;;;;10563505;27;20047;-76
2022/10/01 06:58:01;;;;;;;4.32;1.95;;;;;;;;;;10558056;27;20035;-76
2022/10/01 07:03:05;;;;;;;10.70;4.40;;;;;;;;;;10557051;27;20043;-76
2022/10/01 07:08:07;;;;;;;;;;;;;;;;;;10557338;27;20036;-76
2022/10/01 07:13:12;;;;;;;6.93;3.78;;;;;;;;;;10542474;27;19947;-75
2022/10/01 07:18:15;;;;;;;5.80;2.95;;;;;;;;;;10552746;27;20043;-75
2022/10/01 07:23:18;;;;;;;3.97;2.27;;;;;;;;;;10551009;27;20585;-76
2022/10/01 07:28:24;;;;;;;6.80;3.70;;;;;;;;;;10537196;27;20047;-77
2022/10/01 07:33:27;;;;;;;8.02;3.92;;;;;;;;;;10535157;28;20382;-75
2022/10/01 07:38:32;;;;;;;7.13;3.35;;;;;;;;;;10561043;28;20078;-76
2022/10/01 07:43:40;;;;;;;5.38;2.80;;;;;;;;;;10542313;28;20507;-76
2022/10/01 07:48:45;;;;;;;6.65;2.80;;;;;;;;;;10550666;28;20061;-76
2022/10/01 07:53:47;;;;;;;4.13;2.40;;;;;;;;;;10570526;27;20058;-76
2022/10/01 07:58:54;;;;;;;6.07;3.00;;;;;;;;;;10576545;27;20046;-75
2022/10/01 08:03:57;;;;;;;2.50;2.00;;;;;;;;;;10565071;27;20055;-77
2022/10/01 08:08:59;;;;;;;3.63;2.43;;;;;;;;;;10562406;27;20028;-77
2022/10/01 08:14:04;;;;;;;2.35;1.40;;;;;;;;;;10559241;27;20301;-76
2022/10/01 08:19:07;;;;;;;4.90;2.20;;;;;;;;;;10543112;28;20085;-76
2022/10/01 08:24:10;;;;;;;2.53;2.00;;;;;;;;;;10562432;28;20044;-76
2022/10/01 08:29:14;;;;;;;1.38;1.27;;;;;;;;;;10549392;28;20059;-76
2022/10/01 08:34:18;;;;;;;4.05;1.60;;;;;;;;;;10560147;28;20138;-76
2022/10/01 08:39:22;;;;;;;2.15;1.48;;;;;;;;;;10560567;28;20040;-77
2022/10/01 08:44:29;;;;;;;1.70;1.20;;;;;;;;;;10534082;28;20373;-77
2022/10/01 08:49:35;;;;;;;1.77;1.27;;;;;;;;;;10570954;28;20039;-77
2022/10/01 08:54:40;;;;;;;2.70;1.48;;;;;;;;;;10565735;27;20085;-77
2022/10/01 08:59:46;;;;;;;1.42;1.20;;;;;;;;;;10576369;27;20059;-77
2022/10/01 09:04:50;;;;;;;1.58;0.82;;;;;;;;;;10562974;27;20051;-76
2022/10/01 09:09:59;;;;;;;1.80;0.90;;;;;;;;;;10575880;27;20043;-77
2022/10/01 09:15:19;;;;;;;1.63;1.45;;;;;;;;;;10575743;27;20032;-77
2022/10/01 09:20:26;;;;;;;1.73;1.30;;;;;;;;;;10571126;27;20135;-77
2022/10/01 09:25:29;;;;;;;1.90;1.40;;;;;;;;;;10554703;27;20047;-77
2022/10/01 09:30:36;;;;;;;1.25;1.15;;;;;;;;;;10570434;27;20501;-77
2022/10/01 09:35:43;;;;;;;3.83;1.48;;;;;;;;;;10559454;27;20044;-76
2022/10/01 09:40:49;;;;;;;1.63;1.20;;;;;;;;;;10561996;27;20039;-77
2022/10/01 09:45:56;;;;;;;3.67;1.27;;;;;;;;;;10548371;28;20046;-77
2022/10/01 09:51:03;;;;;;;2.00;0.80;;;;;;;;;;10550275;27;20040;-77
2022/10/01 09:56:11;;;;;;;1.15;0.90;;;;;;;;;;10565232;27;20066;-76
2022/10/01 10:01:20;;;;;;;1.00;0.90;;;;;;;;;;10566620;27;20048;-77
2022/10/01 10:06:28;;;;;;;1.10;1.00;;;;;;;;;;10559081;27;20040;-77
2022/10/01 10:11:31;;;;;;;1.52;1.05;;;;;;;;;;10546535;27;20043;-78
2022/10/01 10:16:35;;;;;;;2.05;1.17;;;;;;;;;;10557731;28;20662;-77
2022/10/01 10:21:52;;;;;;;2.58;1.35;;;;;;;;;;10553512;27;20457;-77
2022/10/01 10:26:56;;;;;;;3.60;1.25;;;;;;;;;;10565372;28;20032;-75
2022/10/01 10:32:02;;;;;;;1.98;1.15;;;;;;;;;;10568177;27;20050;-77
2022/10/01 10:37:14;;;;;;;2.20;0.85;;;;;;;;;;10566982;28;20039;-77
2022/10/01 10:42:18;;;;;;;2.88;1.73;;;;;;;;;;10569191;27;20039;-77
2022/10/01 10:47:23;;;;;;;2.05;1.65;;;;;;;;;;10556585;28;20040;-77
2022/10/01 10:52:29;;;;;;;2.40;1.38;;;;;;;;;;10560769;27;20046;-77
2022/10/01 10:57:33;;;;;;;4.07;1.88;;;;;;;;;;10566031;27;20035;-77
2022/10/01 11:02:36;;;;;;;2.47;1.40;;;;;;;;;;10542632;27;20048;-77
2022/10/01 11:07:42;;;;;;;3.80;1.80;;;;;;;;;;10569450;27;20508;-77
2022/10/01 11:12:58;;;;;;;3.25;1.90;;;;;;;;;;10564881;28;20039;-77
2022/10/01 11:18:09;;;;;;;2.65;1.77;;;;;;;;;;10560118;27;20465;-78
2022/10/01 11:23:32;;;;;;;3.40;2.08;;;;;;;;;;10553457;28;20046;-77
2022/10/01 11:28:46;;;;;;;2.05;1.70;;;;;;;;;;10545463;27;20054;-77
2022/10/01 11:34:00;;;;;;;5.32;2.60;;;;;;;;;;10569943;28;20104;-78
2022/10/01 11:39:10;;;;;;;3.15;2.00;;;;;;;;;;10564704;28;20034;-79
2022/10/01 11:44:18;;;;;;;2.25;1.13;;;;;;;;;;10561423;28;20039;-78
2022/10/01 11:49:41;;;;;;;2.03;1.60;;;;;;;;;;10548763;28;20054;-78
2022/10/01 11:54:51;;;;;;;1.70;1.10;;;;;;;;;;10549220;28;20121;-78
2022/10/01 12:00:05;;;;;;;3.45;1.98;;;;;;;;;;10556980;28;20040;-78
2022/10/01 12:05:10;;;;;;;4.55;2.10;;;;;;;;;;10555064;28;20081;-78
2022/10/01 12:10:16;;;;;;;2.10;1.45;;;;;;;;;;10562766;28;20043;-78
2022/10/01 12:15:23;;;;;;;3.65;2.08;;;;;;;;;;10555015;28;20061;-76
2022/10/01 12:20:29;;;;;;;3.33;1.73;;;;;;;;;;10563094;28;20493;-76
2022/10/01 12:25:36;;;;;;;3.95;2.20;;;;;;;;;;10546711;28;20425;-76
2022/10/01 12:30:54;;;;;;;3.15;1.45;;;;;;;;;;10580422;27;20038;-76
2022/10/01 12:36:03;;;;;;;2.83;1.80;;;;;;;;;;10566961;27;20047;-76
2022/10/01 12:41:11;;;;;;;2.88;1.25;;;;;;;;;;10564652;27;20036;-76
2022/10/01 12:46:19;;;;;;;3.03;1.50;;;;;;;;;;10556338;27;21293;-75
2022/10/01 12:51:32;;;;;;;5.30;2.70;;;;;;;;;;10563217;27;20033;-76
2022/10/01 12:56:37;;;;;;;3.63;1.60;;;;;;;;;;10561204;27;20055;-76
2022/10/01 13:01:49;;;;;;;4.38;2.10;;;;;;;;;;10568362;27;20043;-76
2022/10/01 13:06:59;;;;;;;2.95;1.90;;;;;;;;;;10559228;27;20040;-77
2022/10/01 13:12:12;;;;;;;3.08;2.10;;;;;;;;;;10555009;27;20127;-77
2022/10/01 13:17:20;;;;;;;2.07;1.10;;;;;;;;;;10551898;27;20055;-78
2022/10/01 13:22:31;;;;;;;3.55;1.70;;;;;;;;;;10558863;27;20032;-78
2022/10/01 13:27:35;;;;;;;3.60;1.52;;;;;;;;;;10565991;27;20404;-77
2022/10/01 13:32:50;;;;;;;1.60;0.82;;;;;;;;;;10558916;27;20047;-77
2022/10/01 13:37:55;;;;;;;1.27;1.02;;;;;;;;;;10560955;27;20031;-76
2022/10/01 13:43:00;;;;;;;1.45;1.00;;;;;;;;;;10568541;27;20046;-76
2022/10/01 13:48:22;;;;;;;3.40;1.50;;;;;;;;;;10568270;27;20096;-79
2022/10/01 13:53:28;;;;;;;5.05;2.33;;;;;;;;;;10567024;27;20092;-78
2022/10/01 13:58:33;;;;;;;1.42;1.17;;;;;;;;;;10557299;27;20048;-77
2022/10/01 14:03:42;;;;;;;2.00;1.00;;;;;;;;;;10566843;27;20048;-77
2022/10/01 14:08:49;;;;;;;1.67;1.05;;;;;;;;;;10569898;27;20043;-76
2022/10/01 14:19:18;;;;;;;1.10;0.90;;;;;;;;;;10559184;28;20139;-76
2022/10/01 14:24:30;;;;;;;1.88;1.02;;;;;;;;;;10556586;27;20088;-79
2022/10/01 14:29:41;;;;;;;1.45;1.20;;;;;;;;;;10570457;27;20048;-79
2022/10/01 14:34:54;;;;;;;1.52;0.70;;;;;;;;;;10555778;27;20067;-77
2022/10/01 14:40:16;;;;;;;1.65;1.00;;;;;;;;;;10564955;27;20035;-77
2022/10/01 14:45:35;;;;;;;1.27;1.02;;;;;;;;;;10561523;27;20047;-79
2022/10/01 14:50:39;;;;;;;0.85;0.50;;;;;;;;;;10549990;27;20537;-79
2022/10/01 14:55:42;;;;;;;;;;;;;;;;;;10547279;28;20040;-78
2022/10/01 15:07:02;;;;;;;2.35;1.30;;;;;;;;;;10570619;28;20048;-79
2022/10/01 15:17:42;;;;;;;2.10;0.98;;;;;;;;;;10568818;28;20043;-77
2022/10/01 15:22:53;;;;;;;3.13;1.08;;;;;;;;;;10564377;27;20054;-77
2022/10/01 15:28:14;;;;;;;2.58;1.50;;;;;;;;;;10576572;27;20491;-79
2022/10/01 15:33:27;;;;;;;2.60;1.38;;;;;;;;;;10563762;27;20040;-78
2022/10/01 15:38:31;;;;;;;2.03;1.40;;;;;;;;;;10565489;28;20162;-78
2022/10/01 15:43:34;;;;;;;1.95;1.10;;;;;;;;;;10573181;28;20522;-78
2022/10/01 15:48:39;;;;;;;0.80;0.65;;;;;;;;;;10552980;28;20036;-78
2022/10/01 15:53:42;;;;;;;2.78;1.10;;;;;;;;;;10573947;28;20053;-78
2022/10/01 15:58:48;;;;;;;1.83;0.97;;;;;;;;;;10571151;28;20040;-77
2022/10/01 16:03:54;;;;;;;2.08;1.30;;;;;;;;;;10572659;27;20471;-79
2022/10/01 16:09:04;;;;;;;3.05;1.63;;;;;;;;;;10569533;28;20040;-77
2022/10/01 16:14:21;;;;;;;1.48;0.80;;;;;;;;;;10578055;27;20105;-77
2022/10/01 16:19:29;;;;;;;1.92;1.02;;;;;;;;;;10572187;27;20048;-78
2022/10/01 16:24:40;;;;;;;1.52;1.02;;;;;;;;;;10575299;27;20059;-79
2022/10/01 16:29:49;;;;;;;1.80;1.23;;;;;;;;;;10576596;27;20035;-77
2022/10/01 16:34:53;;;;;;;1.60;1.30;;;;;;;;;;10556212;27;20385;-79
2022/10/01 16:39:56;;;;;;;3.13;1.83;;;;;;;;;;10572629;27;20071;-77
2022/10/01 16:44:59;;;;;;;3.00;1.42;;;;;;;;;;10575548;27;20677;-77
2022/10/01 16:50:06;;;;;;;1.27;1.10;;;;;;;;;;10571923;27;20035;-77
2022/10/01 16:55:15;;;;;;;1.38;1.00;;;;;;;;;;10576488;27;20036;-78
2022/10/01 17:00:19;;;;;;;2.38;1.10;;;;;;;;;;10567147;27;20042;-77
2022/10/01 17:05:22;;;;;;;;;;;;;;;;;;10560152;27;20051;-78
2022/10/01 17:10:27;;;;;;;1.02;0.93;;;;;;;;;;10579187;27;20356;-78
2022/10/01 17:15:32;;;;;;;1.13;0.90;;;;;;;;;;10574942;27;20130;-77
2022/10/01 17:20:36;;;;;;;1.00;0.70;;;;;;;;;;10564337;27;20078;-77
2022/10/01 17:25:41;;;;;;;1.33;1.15;;;;;;;;;;10568399;27;20046;-78
2022/10/01 17:30:46;;;;;;;1.25;0.98;;;;;;;;;;10556081;27;20553;-78
2022/10/01 17:35:53;;;;;;;1.58;0.80;;;;;;;;;;10570518;27;20046;-77
2022/10/01 17:41:01;;;;;;;1.45;0.82;;;;;;;;;;10569487;28;20039;-78
2022/10/01 17:46:04;;;;;;;0.77;0.70;;;;;;;;;;10572183;27;20100;-78
2022/10/01 17:51:08;;;;;;;2.05;1.25;;;;;;;;;;10568509;27;20063;-77
2022/10/01 17:56:14;;;;;;;1.35;1.00;;;;;;;;;;10573670;27;20066;-77
2022/10/01 18:01:19;;;;;;;0.98;0.80;;;;;;;;;;10576189;27;20405;-77
2022/10/01 18:06:22;;;;;;;1.65;0.80;;;;;;;;;;10577991;27;20043;-76
2022/10/01 18:11:28;;;;;;;1.75;1.10;;;;;;;;;;10559091;27;20642;-78
2022/10/01 18:16:32;;;;;;;2.05;1.20;;;;;;;;;;10567642;27;20098;-78
2022/10/01 18:21:35;;;;;;;1.45;1.00;;;;;;;;;;10546759;27;20036;-77
2022/10/01 18:26:40;;;;;;;0.93;0.70;;;;;;;;;;10574379;27;21277;-78
2022/10/01 18:31:44;;;;;;;1.58;0.82;;;;;;;;;;10566556;27;20542;-78
2022/10/01 18:36:51;;;;;;;1.60;1.05;;;;;;;;;;10561466;27;20036;-76
2022/10/01 18:41:56;;;;;;;2.08;1.30;;;;;;;;;;10568915;27;20038;-78
2022/10/01 18:47:04;;;;;;;3.08;0.73;;;;;;;;;;10574330;27;20422;-77
2022/10/01 18:52:16;;;;;;;2.03;1.10;;;;;;;;;;10562145;27;20040;-78
2022/10/01 18:57:30;;;;;;;1.55;1.08;;;;;;;;;;10554936;27;20452;-78
2022/10/01 19:02:40;;;;;;;1.95;1.17;;;;;;;;;;10563600;27;20040;-78
2022/10/01 19:07:53;;;;;;;3.20;1.27;;;;;;;;;;10572607;27;20123;-78
2022/10/01 19:13:05;;;;;;;1.38;1.00;;;;;;;;;;10568252;27;20131;-78
2022/10/01 19:18:28;;;;;;;0.88;0.82;;;;;;;;;;10559874;28;20039;-77
2022/10/01 19:23:45;;;;;;;1.13;1.00;;;;;;;;;;10543590;28;20052;-78
2022/10/01 19:28:58;;;;;;;2.20;1.13;;;;;;;;;;10567672;27;20514;-78
2022/10/01 19:34:05;;;;;;;0.90;0.70;;;;;;;;;;10568261;28;20035;-78
2022/10/01 19:39:11;;;;;;;1.73;1.17;;;;;;;;;;10566418;28;20051;-78
2022/10/01 19:44:16;;;;;;;2.47;1.15;;;;;;;;;;10563700;28;20471;-78
2022/10/01 19:49:21;;;;;;;1.98;0.90;;;;;;;;;;10558802;28;20456;-78
2022/10/01 19:54:27;;;;;;;1.42;0.90;;;;;;;;;;10568522;28;20116;-77
2022/10/01 19:59:32;;;;;;;1.50;1.15;;;;;;;;;;10574100;28;20058;-77
2022/10/01 20:04:36;;;;;;;0.95;0.85;;;;;;;;;;10578420;28;20135;-77
2022/10/01 20:09:44;;;;;;;1.23;0.90;;;;;;;;;;10607008;28;20031;-77
2022/10/01 20:15:08;;;;;;;1.45;0.73;;;;;;;;;;10600280;28;20048;-78
2022/10/01 20:20:10;;;;;;;;;;;;;;;;;;10574904;28;20035;-78
2022/10/01 20:25:16;;;;;;;0.55;0.50;;;;;;;;;;10572605;28;20030;-77
2022/10/01 20:30:21;;;;;;;0.95;0.80;;;;;;;;;;10562037;28;20043;-78
2022/10/01 20:35:27;;;;;;;1.38;0.85;;;;;;;;;;10551435;28;20047;-79
2022/10/01 20:40:34;;;;;;;0.70;0.60;;;;;;;;;;10538172;28;20044;-77
2022/10/01 20:45:39;;;;;;;2.17;0.73;;;;;;;;;;10570647;28;20047;-77
2022/10/01 20:50:43;;;;;;;1.02;0.80;;;;;;;;;;10572983;27;20035;-78
2022/10/01 20:55:48;;;;;;;1.85;0.70;;;;;;;;;;10557741;27;20047;-77
2022/10/01 21:00:56;;;;;;;0.85;0.68;;;;;;;;;;10567182;27;20032;-77
2022/10/01 21:06:03;;;;;;;1.13;0.60;;;;;;;;;;10566186;27;20405;-77
2022/10/01 21:11:11;;;;;;;0.90;0.80;;;;;;;;;;10570424;27;20480;-76
2022/10/01 21:16:23;;;;;;;1.55;1.00;;;;;;;;;;10564285;27;20039;-76
2022/10/01 21:21:30;;;;;;;2.42;1.45;;;;;;;;;;10546437;28;20042;-76
2022/10/01 21:26:37;;;;;;;1.30;0.63;;;;;;;;;;10570474;27;20035;-78
2022/10/01 21:31:45;;;;;;;2.40;0.68;;;;;;;;;;10560258;27;20122;-78
2022/10/01 21:36:52;;;;;;;9.05;1.10;;;;;;;;;;10572441;27;20127;-78
2022/10/01 21:42:00;;;;;;;1.27;0.85;;;;;;;;;;10587807;27;20027;-76
2022/10/01 21:47:07;;;;;;;1.05;0.70;;;;;;;;;;10594650;27;20036;-78
2022/10/01 21:52:16;;;;;;;1.35;0.80;;;;;;;;;;10574434;27;20040;-78
2022/10/01 21:57:27;;;;;;;0.63;0.60;;;;;;;;;;10572518;27;20039;-78
2022/10/01 22:02:37;;;;;;;1.92;0.70;;;;;;;;;;10550092;27;20047;-78
2022/10/01 22:07:46;;;;;;;2.60;1.05;;;;;;;;;;10559733;27;20043;-78
2022/10/01 22:12:53;;;;;;;0.75;0.45;;;;;;;;;;10560834;27;20135;-77
2022/10/01 22:17:59;;;;;;;1.27;0.70;;;;;;;;;;10530251;27;20477;-77
2022/10/01 22:23:07;;;;;;;0.35;0.32;;;;;;;;;;10560517;27;20034;-77
2022/10/01 22:28:14;;;;;;;2.28;0.50;;;;;;;;;;10569343;27;20073;-77
2022/10/01 22:33:21;;;;;;;1.23;0.70;;;;;;;;;;10563045;27;20043;-77
2022/10/01 22:38:25;;;;;;;0.73;0.43;;;;;;;;;;10559389;27;20108;-77
2022/10/01 22:43:28;;;;;;;0.93;0.65;;;;;;;;;;10553248;27;20035;-78
2022/10/01 22:48:42;;;;;;;4.18;1.23;;;;;;;;;;10559558;28;20056;-78
2022/10/01 22:53:57;;;;;;;0.90;0.60;;;;;;;;;;10544757;28;20054;-79
2022/10/01 22:59:07;;;;;;;1.95;0.90;;;;;;;;;;10568207;28;20051;-77
2022/10/01 23:04:25;;;;;;;2.30;0.95;;;;;;;;;;10561058;27;20080;-76
2022/10/01 23:09:33;;;;;;;1.23;0.60;;;;;;;;;;10567140;27;20048;-77
2022/10/01 23:14:42;;;;;;;2.20;0.90;;;;;;;;;;10543045;27;20047;-76
2022/10/01 23:19:52;;;;;;;0.30;0.30;;;;;;;;;;10561829;27;20043;-79
2022/10/01 23:25:03;;;;;;;1.15;0.80;;;;;;;;;;10552736;28;20093;-77
2022/10/01 23:30:10;;;;;;;1.15;0.77;;;;;;;;;;10579368;27;20091;-76
2022/10/01 23:35:17;;;;;;;2.08;0.90;;;;;;;;;;10610552;27;20054;-78
2022/10/01 23:40:21;;;;;;;0.77;0.60;;;;;;;;;;10569083;27;20096;-77
2022/10/01 23:45:26;;;;;;;1.23;0.90;;;;;;;;;;10549718;28;20036;-77
2022/10/01 23:50:37;;;;;;;1.67;1.10;;;;;;;;;;10549425;28;20566;-77
